Time;durP1;ratioP1;P1;durP2;ratioP2;P2;SDS_P1;SDS_P2;PMS_P1;PMS_P2;Temp;Humidity;BMP_temperature;BMP_pressure;BME280_temperature;BME280_humidity;BME280_pressure;Samples;Min_cycle;Max_cycle;Signal;HPM_P1;HPM_P2
2022/03/14 00:02:25;;;;;;;14.00;13.40;;;;;;;0.95;59.36;101899.61;103387;1281;99306;-62
2022/03/14 00:04:54;;;;;;;15.10;14.50;;;;;;;0.93;59.36;101897.29;103249;1281;138568;-62
2022/03/14 00:07:23;;;;;;;15.10;14.50;;;;;;;0.95;59.40;101898.94;103472;1281;97133;-61
2022/03/14 00:09:52;;;;;;;17.60;16.80;;;;;;;0.93;59.26;101900.64;103041;1281;139137;-63
2022/03/14 00:12:23;;;;;;;15.50;14.90;;;;;;;0.93;59.37;101899.38;103365;1281;111159;-63
2022/03/14 00:14:56;;;;;;;19.40;18.50;;;;;;;0.89;59.26;101897.48;103423;1281;99976;-64
2022/03/14 00:17:26;;;;;;;15.50;14.80;;;;;;;0.88;59.57;101898.67;103246;1280;138339;-62
2022/03/14 00:19:57;;;;;;;13.10;12.60;;;;;;;0.80;59.72;101897.17;103409;1281;96735;-61
2022/03/14 00:22:26;;;;;;;14.30;13.80;;;;;;;0.83;59.44;101897.98;103368;1279;139186;-61
2022/03/14 00:24:54;;;;;;;16.20;15.50;;;;;;;0.83;59.47;101899.38;103349;1281;111294;-62
2022/03/14 00:27:22;;;;;;;16.50;15.80;;;;;;;0.80;59.82;101897.50;102995;1281;437050;-62
2022/03/14 00:29:49;;;;;;;16.30;15.60;;;;;;;0.81;59.60;101899.32;103088;1281;109294;-63
2022/03/14 00:32:17;;;;;;;15.40;14.80;;;;;;;0.85;59.55;101894.71;103413;1281;96484;-61
2022/03/14 00:34:46;;;;;;;12.60;12.10;;;;;;;0.80;59.77;101898.73;103343;1281;138862;-63
2022/03/14 00:37:14;;;;;;;14.90;14.20;;;;;;;0.79;59.53;101898.17;103132;1281;111122;-62
2022/03/14 00:39:41;;;;;;;17.20;16.50;;;;;;;0.78;59.35;101893.07;103366;1280;139186;-62
2022/03/14 00:42:09;;;;;;;18.10;17.30;;;;;;;0.79;59.35;101896.77;103120;1281;109287;-62
2022/03/14 00:44:38;;;;;;;14.40;13.80;;;;;;;0.78;59.72;101897.09;103246;1281;97923;-61
2022/03/14 00:47:06;;;;;;;13.20;12.70;;;;;;;0.82;59.34;101897.60;103361;1280;138496;-61
2022/03/14 00:49:34;;;;;;;17.60;16.90;;;;;;;0.87;59.41;101901.78;103389;1281;110960;-60
2022/03/14 00:52:06;;;;;;;15.30;14.60;;;;;;;0.89;59.12;101896.08;103325;1281;139233;-59
2022/03/14 00:54:36;;;;;;;16.30;15.60;;;;;;;0.91;59.12;101893.02;103669;1281;107839;-63
2022/03/14 00:57:04;;;;;;;16.40;15.70;;;;;;;0.88;58.99;101891.70;103331;1281;97035;-63
2022/03/14 00:59:34;;;;;;;16.00;15.30;;;;;;;0.92;58.81;101889.73;103231;1281;139237;-62
2022/03/14 01:02:02;;;;;;;14.10;13.60;;;;;;;0.86;59.10;101890.73;103366;1280;111652;-62
2022/03/14 01:04:30;;;;;;;16.00;15.30;;;;;;;0.87;58.83;101889.38;103260;1281;140292;-62
2022/03/14 01:06:58;;;;;;;14.00;13.50;;;;;;;0.87;58.83;101890.77;103311;1281;109029;-63
2022/03/14 01:09:25;;;;;;;15.90;15.20;;;;;;;0.78;58.96;101891.16;103280;1281;138853;-63
2022/03/14 01:11:54;;;;;;;15.60;15.00;;;;;;;0.85;58.80;101892.11;103425;1280;97037;-59
2022/03/14 01:14:23;;;;;;;13.30;12.80;;;;;;;0.79;59.36;101890.67;103389;1281;111126;-61
2022/03/14 01:16:52;;;;;;;15.60;15.00;;;;;;;0.67;59.33;101896.16;103323;1281;139503;-62
2022/03/14 01:19:20;;;;;;;16.80;16.10;;;;;;;0.64;59.71;101891.31;103359;1281;108911;-62
2022/03/14 01:21:49;;;;;;;16.00;15.30;;;;;;;0.73;59.33;101890.94;103542;1281;139765;-63
2022/03/14 01:24:17;;;;;;;16.30;15.60;;;;;;;0.77;59.04;101889.54;103427;1281;96868;-63
2022/03/14 01:26:45;;;;;;;18.00;17.20;;;;;;;0.78;58.95;101894.80;103322;1281;111207;-62
2022/03/14 01:29:17;;;;;;;13.40;12.90;;;;;;;0.74;59.27;101897.64;103226;1281;138707;-64
2022/03/14 01:31:45;;;;;;;13.50;13.00;;;;;;;0.72;59.49;101902.09;103370;1281;108724;-62
2022/03/14 01:34:14;;;;;;;15.30;14.60;;;;;;;0.69;59.45;101899.35;103283;1281;139519;-63
2022/03/14 01:36:42;;;;;;;13.90;13.30;;;;;;;0.73;59.36;101899.36;103567;1281;97051;-62
2022/03/14 01:39:10;;;;;;;18.20;17.40;;;;;;;0.75;59.37;101898.21;103202;1281;111590;-63
2022/03/14 01:41:38;;;;;;;16.40;15.70;;;;;;;0.77;59.31;101895.65;103324;1280;138466;-61
2022/03/14 01:44:05;;;;;;;13.30;12.80;;;;;;;0.77;59.42;101893.36;103402;1280;109974;-64
2022/03/14 01:46:34;;;;;;;17.20;16.50;;;;;;;0.76;59.19;101890.88;103325;1281;139820;-63
2022/03/14 01:49:04;;;;;;;16.60;15.90;;;;;;;0.74;59.58;101891.48;103350;1281;97007;-60
2022/03/14 01:51:34;;;;;;;18.30;17.50;;;;;;;0.71;59.35;101894.87;103365;1281;138725;-61
2022/03/14 01:54:02;;;;;;;16.10;15.40;;;;;;;0.67;59.61;101897.19;103621;1281;99415;-58
2022/03/14 01:56:30;;;;;;;13.40;12.90;;;;;;;0.62;59.66;101896.65;103080;1282;107421;-61
2022/03/14 01:58:58;;;;;;;14.20;13.70;;;;;;;0.61;59.63;101900.63;103298;1281;139153;-62
2022/03/14 02:01:26;;;;;;;16.50;15.80;;;;;;;0.69;59.65;101899.35;103457;1281;97110;-62
2022/03/14 02:03:55;;;;;;;13.00;12.50;;;;;;;0.63;59.56;101904.58;103274;1281;138603;-61
2022/03/14 02:06:22;;;;;;;14.70;14.10;;;;;;;0.62;59.40;101905.91;103364;1281;98264;-61
2022/03/14 02:08:50;;;;;;;16.70;16.00;;;;;;;0.55;60.00;101905.98;103089;1283;108894;-62
2022/03/14 02:11:19;;;;;;;14.50;14.00;;;;;;;0.48;59.79;101907.31;103276;1281;138607;-62
2022/03/14 02:13:47;;;;;;;17.90;17.10;;;;;;;0.47;60.12;101903.58;103420;1281;96511;-63
2022/03/14 02:16:15;;;;;;;16.40;15.70;;;;;;;0.48;60.00;101904.68;103183;1281;139548;-62
2022/03/14 02:18:43;;;;;;;14.50;13.90;;;;;;;0.46;59.94;101908.63;103176;1281;98907;-65
2022/03/14 02:21:13;;;;;;;17.40;16.60;;;;;;;0.44;60.02;101906.28;103476;1281;109302;-65
2022/03/14 02:23:41;;;;;;;12.90;12.40;;;;;;;0.43;59.99;101905.54;103163;1281;139287;-62
2022/03/14 02:26:09;;;;;;;14.80;14.20;;;;;;;0.45;60.48;101908.93;103461;1281;96552;-62
2022/03/14 02:28:37;;;;;;;17.40;16.60;;;;;;;0.48;59.90;101908.38;103041;1281;139790;-61
2022/03/14 02:31:05;;;;;;;17.50;16.80;;;;;;;0.46;60.04;101909.64;103440;1281;98346;-61
2022/03/14 02:33:33;;;;;;;16.90;16.20;;;;;;;0.42;60.15;101914.58;103275;1281;138697;-63
2022/03/14 02:36:01;;;;;;;14.90;14.30;;;;;;;0.38;60.28;101918.60;103553;1281;96705;-61
2022/03/14 02:38:28;;;;;;;14.00;13.50;;;;;;;0.37;60.46;101916.99;103360;1281;97100;-61
2022/03/14 02:40:56;;;;;;;16.70;16.00;;;;;;;0.47;60.27;101920.38;103298;1281;139252;-62
2022/03/14 02:43:24;;;;;;;15.70;15.00;;;;;;;0.51;59.95;101921.05;103421;1281;99689;-62
2022/03/14 02:45:53;;;;;;;17.20;16.40;;;;;;;0.49;59.86;101919.92;103310;1281;138566;-60
2022/03/14 02:48:23;;;;;;;16.80;16.10;;;;;;;0.55;60.05;101923.65;103461;1281;96614;-60
2022/03/14 02:50:53;;;;;;;12.10;11.60;;;;;;;0.56;59.77;101917.73;103422;1281;96496;-59
2022/03/14 02:53:21;;;;;;;17.40;16.70;;;;;;;0.54;60.00;101923.25;103297;1281;139234;-63
2022/03/14 02:55:49;;;;;;;16.40;15.70;;;;;;;0.52;59.91;101919.66;103410;1281;99408;-62
2022/03/14 02:58:17;;;;;;;15.90;15.30;;;;;;;0.50;60.19;101919.29;103282;1281;140166;-62
2022/03/14 03:00:44;;;;;;;16.30;15.60;;;;;;;0.50;60.15;101919.08;103360;1281;96579;-62
2022/03/14 03:03:13;;;;;;;12.40;11.90;;;;;;;0.49;59.90;101915.91;103158;1281;97018;-63
2022/03/14 03:05:44;;;;;;;13.50;13.00;;;;;;;0.55;59.76;101918.41;103511;1281;138607;-62
2022/03/14 03:08:12;;;;;;;14.20;13.60;;;;;;;0.55;59.66;101916.84;103493;1281;99412;-63
2022/03/14 03:10:42;;;;;;;17.10;16.40;;;;;;;0.50;59.96;101922.42;103341;1281;138475;-62
2022/03/14 03:13:11;;;;;;;14.40;13.90;;;;;;;0.48;59.94;101923.36;103421;1280;97096;-61
2022/03/14 03:15:38;;;;;;;14.30;13.80;;;;;;;0.45;60.01;101924.48;103300;1281;138916;-63
2022/03/14 03:18:07;;;;;;;13.00;12.50;;;;;;;0.36;60.16;101927.25;103358;1281;111072;-63
2022/03/14 03:20:35;;;;;;;14.90;14.30;;;;;;;0.39;60.12;101927.01;103363;1281;99359;-62
2022/03/14 03:23:03;;;;;;;15.60;15.00;;;;;;;0.40;60.23;101931.46;103304;1281;138823;-61
2022/03/14 03:25:30;;;;;;;15.10;14.50;;;;;;;0.36;60.31;101937.20;103349;1281;96600;-63
2022/03/14 03:27:58;;;;;;;18.20;17.40;;;;;;;0.26;60.51;101939.29;103337;1281;139200;-62
2022/03/14 03:30:26;;;;;;;14.50;13.90;;;;;;;0.22;60.83;101940.52;103329;1281;111040;-61
2022/03/14 03:32:54;;;;;;;17.70;16.90;;;;;;;0.27;60.75;101939.48;103453;1281;99193;-61
2022/03/14 03:35:22;;;;;;;16.40;15.70;;;;;;;0.34;60.41;101938.02;103231;1281;138957;-63
2022/03/14 03:37:49;;;;;;;16.90;16.20;;;;;;;0.36;60.39;101943.34;103366;1281;97964;-64
2022/03/14 03:40:17;;;;;;;16.80;16.10;;;;;;;0.35;60.53;101941.19;103296;1281;138456;-62
2022/03/14 03:42:46;;;;;;;13.90;13.40;;;;;;;0.35;60.22;101945.05;103443;1281;110227;-62
2022/03/14 03:45:14;;;;;;;15.80;15.20;;;;;;;0.32;60.27;101945.27;103414;1281;99378;-62
2022/03/14 03:47:41;;;;;;;18.20;17.40;;;;;;;0.33;60.37;101946.55;103363;1281;139217;-62
2022/03/14 03:50:10;;;;;;;17.90;17.20;;;;;;;0.40;60.18;101949.08;103420;1281;96616;-61
2022/03/14 03:52:38;;;;;;;14.30;13.80;;;;;;;0.33;60.42;101951.96;103352;1281;138564;-63
2022/03/14 03:55:06;;;;;;;16.30;15.70;;;;;;;0.30;60.41;101952.38;103177;1281;111083;-62
2022/03/14 03:57:39;;;;;;;13.50;13.00;;;;;;;0.34;60.37;101953.39;103454;1281;139250;-62
2022/03/14 04:00:12;;;;;;;17.40;16.70;;;;;;;0.40;60.20;101952.94;103351;1281;108818;-61
2022/03/14 04:02:42;;;;;;;16.10;15.40;;;;;;;0.37;59.93;101954.05;103691;1281;96942;-63
2022/03/14 04:05:11;;;;;;;18.30;17.50;;;;;;;0.34;60.22;101948.86;103275;1281;138509;-61
2022/03/14 04:07:40;;;;;;;16.90;16.20;;;;;;;0.32;60.09;101949.62;103550;1281;111229;-63
2022/03/14 04:10:09;;;;;;;13.30;12.80;;;;;;;0.29;60.29;101952.65;103290;1281;138651;-61
2022/03/14 04:12:39;;;;;;;14.80;14.20;;;;;;;0.28;60.34;101954.35;103283;1282;107352;-60
2022/03/14 04:15:09;;;;;;;17.30;16.60;;;;;;;0.30;60.20;101952.17;103114;1284;98177;-62
2022/03/14 04:17:38;;;;;;;16.40;15.70;;;;;;;0.35;60.17;101954.64;103082;1281;138394;-62
2022/03/14 04:20:08;;;;;;;18.90;18.10;;;;;;;0.29;60.48;101958.45;103430;1281;110193;-61
2022/03/14 04:22:38;;;;;;;13.70;13.20;;;;;;;0.24;60.66;101959.61;103616;1281;139080;-62
2022/03/14 04:25:07;;;;;;;14.90;14.30;;;;;;;0.21;60.71;101961.95;103369;1280;109292;-62
2022/03/14 04:27:35;;;;;;;24.10;23.00;;;;;;;0.19;60.54;101961.33;103176;1281;140058;-61
2022/03/14 04:30:04;;;;;;;16.50;15.80;;;;;;;0.16;60.77;101957.71;103330;1281;96655;-61
2022/03/14 04:32:32;;;;;;;16.20;15.50;;;;;;;0.17;61.02;101958.63;103251;1281;111244;-63
2022/03/14 04:35:00;;;;;;;14.60;14.10;;;;;;;0.10;60.93;101959.23;103232;1281;138618;-61
2022/03/14 04:37:28;;;;;;;13.50;13.00;;;;;;;0.00;61.44;101958.48;103098;1282;108839;-61
2022/03/14 04:39:56;;;;;;;17.00;16.30;;;;;;;-0.02;61.32;101963.79;103196;1279;139484;-63
2022/03/14 04:42:25;;;;;;;17.10;16.40;;;;;;;0.01;61.30;101964.42;103403;1279;96587;-62
2022/03/14 04:44:54;;;;;;;16.70;16.00;;;;;;;0.04;60.99;101966.65;103474;1280;111075;-62
2022/03/14 04:47:22;;;;;;;13.80;13.30;;;;;;;0.11;61.01;101973.42;103307;1279;139072;-61
2022/03/14 04:49:49;;;;;;;14.00;13.50;;;;;;;0.15;60.88;101972.16;103338;1279;107706;-62
2022/03/14 04:52:17;;;;;;;18.60;17.70;;;;;;;0.13;60.92;101975.61;103270;1281;139389;-61
2022/03/14 04:54:46;;;;;;;18.70;17.90;;;;;;;0.16;60.77;101979.23;103408;1281;97392;-61
2022/03/14 04:57:14;;;;;;;18.40;17.60;;;;;;;0.13;60.78;101983.80;103374;1281;111139;-63
2022/03/14 04:59:42;;;;;;;19.00;18.20;;;;;;;0.14;60.92;101984.71;103364;1280;138933;-63
2022/03/14 05:02:10;;;;;;;14.60;14.10;;;;;;;0.11;61.17;101990.70;103429;1281;108806;-63
2022/03/14 05:04:38;;;;;;;15.50;14.90;;;;;;;0.06;61.10;101990.31;103275;1281;139359;-62
2022/03/14 05:07:07;;;;;;;17.60;16.90;;;;;;;0.06;60.89;101991.19;103574;1281;96978;-63
2022/03/14 05:09:35;;;;;;;18.10;17.30;;;;;;;0.06;61.45;101991.73;103310;1281;138757;-62
2022/03/14 05:12:03;;;;;;;19.70;18.90;;;;;;;0.03;61.28;101990.00;103396;1281;99635;-62
2022/03/14 05:14:31;;;;;;;15.20;14.60;;;;;;;0.01;61.78;101989.25;103166;1282;108797;-62
2022/03/14 05:16:59;;;;;;;12.80;12.30;;;;;;;0.03;61.15;101989.32;103263;1280;139672;-61
2022/03/14 05:19:27;;;;;;;16.10;15.40;;;;;;;0.02;61.42;101987.88;103200;1281;97965;-62
2022/03/14 05:21:55;;;;;;;20.40;19.50;;;;;;;-0.02;61.40;101987.37;103289;1281;139052;-62
2022/03/14 05:24:23;;;;;;;23.40;22.30;;;;;;;-0.03;61.68;101986.60;103533;1281;99440;-63
2022/03/14 05:26:54;;;;;;;14.60;14.10;;;;;;;0.01;61.68;101988.70;103385;1281;107595;-64
2022/03/14 05:29:23;;;;;;;13.80;13.30;;;;;;;0.03;61.39;101992.13;103251;1280;139003;-62
2022/03/14 05:31:51;;;;;;;16.90;16.10;;;;;;;0.11;61.23;101994.21;103359;1281;96569;-61
2022/03/14 05:34:19;;;;;;;16.70;16.00;;;;;;;0.12;61.29;102001.39;103313;1281;138936;-63
2022/03/14 05:36:47;;;;;;;17.50;16.70;;;;;;;0.13;61.56;102003.02;103368;1281;99621;-62
2022/03/14 05:39:15;;;;;;;14.00;13.50;;;;;;;0.15;61.30;102007.98;103149;1281;108834;-62
2022/03/14 05:41:42;;;;;;;14.50;13.90;;;;;;;0.15;61.49;102009.21;103248;1281;138935;-61
2022/03/14 05:44:10;;;;;;;15.70;15.00;;;;;;;0.26;61.10;102011.23;103411;1281;96611;-62
2022/03/14 05:46:38;;;;;;;16.00;15.30;;;;;;;0.32;60.95;102013.23;103333;1279;138469;-64
2022/03/14 05:49:06;;;;;;;15.60;15.00;;;;;;;0.39;60.63;102015.25;103412;1279;99600;-63
2022/03/14 05:51:36;;;;;;;16.80;16.10;;;;;;;0.43;60.48;102016.68;103026;1281;139044;-60
2022/03/14 05:54:05;;;;;;;15.80;15.20;;;;;;;0.40;60.55;102013.23;103593;1280;96642;-63
2022/03/14 05:56:33;;;;;;;15.40;14.80;;;;;;;0.41;60.68;102016.77;103364;1281;96580;-62
2022/03/14 05:59:00;;;;;;;15.50;14.80;;;;;;;0.47;60.67;102014.89;102948;1281;139533;-62
2022/03/14 06:01:28;;;;;;;16.80;16.10;;;;;;;0.51;60.44;102015.39;103306;1280;99694;-64
2022/03/14 06:03:56;;;;;;;16.30;15.60;;;;;;;0.51;60.62;102018.41;103409;1281;139346;-62
2022/03/14 06:06:24;;;;;;;16.50;15.80;;;;;;;0.54;60.39;102019.04;103352;1281;96992;-61
2022/03/14 06:08:52;;;;;;;13.50;12.90;;;;;;;0.59;59.98;102016.08;103459;1281;96498;-60
2022/03/14 06:11:20;;;;;;;15.40;14.80;;;;;;;0.61;60.00;102016.52;103362;1280;138714;-62
2022/03/14 06:13:48;;;;;;;18.10;17.40;;;;;;;0.66;59.78;102017.75;103422;1281;99490;-61
2022/03/14 06:16:16;;;;;;;16.20;15.50;;;;;;;0.74;59.72;102019.66;103311;1281;139681;-62
2022/03/14 06:18:44;;;;;;;16.00;15.30;;;;;;;0.78;59.61;102018.04;103386;1280;96749;-61
2022/03/14 06:21:12;;;;;;;16.70;16.00;;;;;;;0.90;59.47;102022.73;103354;1281;96521;-61
2022/03/14 06:23:40;;;;;;;17.00;16.30;;;;;;;0.97;58.94;102020.94;103313;1281;138421;-61
2022/03/14 06:26:08;;;;;;;15.80;15.20;;;;;;;1.03;58.82;102024.30;103437;1281;98614;-61
2022/03/14 06:28:35;;;;;;;12.20;11.70;;;;;;;1.11;58.96;102023.55;103240;1281;138702;-63
2022/03/14 06:31:03;;;;;;;15.00;14.40;;;;;;;1.12;58.42;102024.27;103398;1281;97377;-61
2022/03/14 06:33:31;;;;;;;15.50;14.90;;;;;;;1.12;58.66;102028.31;103270;1281;138658;-61
2022/03/14 06:35:59;;;;;;;17.10;16.30;;;;;;;1.12;58.38;102026.59;103414;1281;111338;-62
2022/03/14 06:38:27;;;;;;;16.90;16.10;;;;;;;1.15;58.83;102027.54;103548;1281;99511;-63
2022/03/14 06:40:56;;;;;;;16.70;16.00;;;;;;;1.13;58.64;102028.54;103281;1281;138367;-63
2022/03/14 06:43:25;;;;;;;14.70;14.10;;;;;;;1.21;58.79;102031.09;103194;1281;97179;-63
2022/03/14 06:45:52;;;;;;;16.30;15.60;;;;;;;1.23;58.52;102032.94;103362;1281;139278;-61
2022/03/14 06:48:21;;;;;;;13.70;13.20;;;;;;;1.34;58.41;102031.23;103260;1281;111067;-62
2022/03/14 06:50:49;;;;;;;14.70;14.10;;;;;;;1.39;57.80;102033.02;103338;1281;99441;-61
2022/03/14 06:53:17;;;;;;;14.80;14.20;;;;;;;1.32;58.06;102029.25;103189;1281;139184;-62
2022/03/14 06:55:45;;;;;;;14.60;14.10;;;;;;;1.40;57.74;102031.98;103473;1281;96690;-62
2022/03/14 06:58:13;;;;;;;16.00;15.40;;;;;;;1.51;57.45;102029.27;103415;1281;138610;-63
2022/03/14 07:00:41;;;;;;;14.70;14.10;;;;;;;1.65;56.93;102027.30;103453;1281;110879;-61
2022/03/14 07:03:09;;;;;;;16.60;15.90;;;;;;;1.79;56.92;102027.27;103415;1281;100617;-61
2022/03/14 07:05:37;;;;;;;15.50;14.90;;;;;;;1.90;56.69;102027.84;103245;1280;139172;-62
2022/03/14 07:08:05;;;;;;;15.20;14.60;;;;;;;1.88;56.10;102028.15;103303;1281;96890;-63
2022/03/14 07:10:33;;;;;;;17.60;16.90;;;;;;;1.86;56.36;102026.68;102849;1280;138505;-63
2022/03/14 07:13:00;;;;;;;15.80;15.20;;;;;;;1.97;56.17;102025.13;103362;1281;111474;-62
2022/03/14 07:15:29;;;;;;;13.60;13.10;;;;;;;1.99;55.51;102026.63;103185;1281;138904;-63
2022/03/14 07:17:56;;;;;;;14.30;13.70;;;;;;;2.02;56.06;102025.11;103138;1280;108795;-61
2022/03/14 07:20:25;;;;;;;16.70;16.00;;;;;;;2.12;55.44;102030.89;103204;1280;97850;-61
2022/03/14 07:22:55;;;;;;;12.50;12.00;;;;;;;2.12;55.44;102032.31;103358;1280;138499;-63
2022/03/14 07:25:26;;;;;;;13.80;13.20;;;;;;;2.14;55.13;102030.80;103053;1282;110617;-63
2022/03/14 07:27:56;;;;;;;15.20;14.60;;;;;;;2.28;55.37;102035.12;103532;1281;139033;-63
2022/03/14 07:30:24;;;;;;;17.30;16.50;;;;;;;2.33;54.79;102033.91;103539;1281;109362;-62
2022/03/14 07:32:53;;;;;;;15.00;14.40;;;;;;;2.39;54.95;102031.83;103353;1280;96590;-61
2022/03/14 07:35:22;;;;;;;14.30;13.70;;;;;;;2.53;54.63;102030.34;103261;1280;139033;-63
2022/03/14 07:37:50;;;;;;;14.20;13.60;;;;;;;2.62;53.94;102030.64;103263;1281;111028;-62
2022/03/14 07:40:19;;;;;;;17.00;16.30;;;;;;;2.69;54.63;102027.38;103166;1281;138706;-62
2022/03/14 07:42:53;;;;;;;16.60;15.90;;;;;;;2.87;54.42;102025.15;103270;1281;108778;-63
2022/03/14 07:45:24;;;;;;;14.70;14.10;;;;;;;2.96;53.59;102027.70;103212;1281;97586;-62
2022/03/14 07:47:54;;;;;;;14.80;14.20;;;;;;;2.93;53.19;102028.29;103203;1281;138678;-63
2022/03/14 07:50:23;;;;;;;14.30;13.70;;;;;;;2.98;53.21;102028.65;103355;1281;111208;-60
2022/03/14 07:52:52;;;;;;;14.70;14.10;;;;;;;3.09;53.01;102029.67;103597;1279;138684;-62
2022/03/14 07:55:20;;;;;;;13.80;13.20;;;;;;;3.25;53.28;102030.34;103480;1281;108721;-64
2022/03/14 07:57:48;;;;;;;14.10;13.50;;;;;;;3.38;52.33;102028.78;103297;1280;138837;-60
2022/03/14 08:00:21;;;;;;;14.30;13.70;;;;;;;3.48;52.08;102025.05;103282;1281;96564;-63
2022/03/14 08:02:50;;;;;;;17.00;16.30;;;;;;;3.59;52.13;102029.58;103492;1281;111183;-62
2022/03/14 08:05:23;;;;;;;14.50;13.90;;;;;;;3.74;51.72;102033.33;103411;1281;138905;-61
2022/03/14 08:07:52;;;;;;;12.60;12.10;;;;;;;3.83;51.22;102029.89;103414;1280;108693;-64
2022/03/14 08:10:21;;;;;;;13.70;13.10;;;;;;;3.96;50.89;102031.11;103342;1281;138989;-62
2022/03/14 08:12:53;;;;;;;14.40;13.80;;;;;;;4.13;51.18;102026.66;103415;1281;96594;-64
2022/03/14 08:15:25;;;;;;;14.30;13.70;;;;;;;4.28;50.22;102028.10;103355;1279;111189;-62
2022/03/14 08:17:55;;;;;;;13.70;13.10;;;;;;;4.42;50.24;102023.72;103264;1280;138416;-63
2022/03/14 08:20:26;;;;;;;14.10;13.50;;;;;;;4.61;50.02;102026.11;103384;1280;107903;-63
2022/03/14 08:22:56;;;;;;;14.50;13.90;;;;;;;4.75;49.74;102025.21;103486;1279;138712;-62
2022/03/14 08:25:27;;;;;;;14.00;13.40;;;;;;;4.78;48.55;102023.16;103290;1280;96626;-63
2022/03/14 08:27:55;;;;;;;15.30;14.60;;;;;;;4.72;48.24;102022.67;103229;1279;139367;-62
2022/03/14 08:30:23;;;;;;;14.10;13.50;;;;;;;4.79;48.66;102024.95;103355;1280;99449;-61
2022/03/14 08:32:54;;;;;;;14.30;13.70;;;;;;;4.96;48.73;102026.77;103176;1281;108958;-64
2022/03/14 08:35:22;;;;;;;13.70;13.20;;;;;;;5.16;48.44;102025.45;103306;1279;139033;-61
2022/03/14 08:37:52;;;;;;;11.70;11.30;;;;;;;5.29;47.40;102030.48;103353;1279;97529;-63
2022/03/14 08:40:22;;;;;;;10.70;10.30;;;;;;;5.24;47.04;102029.15;103173;1281;138526;-62
2022/03/14 08:42:53;;;;;;;12.90;12.40;;;;;;;5.34;47.77;102030.39;103426;1280;99293;-64
2022/03/14 08:45:23;;;;;;;13.50;13.00;;;;;;;5.56;47.48;102028.77;103249;1281;112225;-64
2022/03/14 08:47:52;;;;;;;12.00;11.50;;;;;;;5.71;46.69;102026.77;103376;1279;138684;-63
2022/03/14 08:50:21;;;;;;;12.60;12.10;;;;;;;5.75;46.34;102023.34;103450;1279;96588;-64
2022/03/14 08:52:51;;;;;;;12.30;11.80;;;;;;;5.86;46.49;102017.55;103467;1279;138856;-64
2022/03/14 08:55:19;;;;;;;11.80;11.30;;;;;;;5.95;46.26;102016.51;103676;1279;99440;-63
2022/03/14 08:57:47;;;;;;;12.60;12.10;;;;;;;6.06;46.30;102014.80;103268;1279;138652;-62
2022/03/14 09:00:17;;;;;;;11.90;11.50;;;;;;;6.19;45.97;102014.84;103328;1279;98026;-64
2022/03/14 09:02:45;;;;;;;11.30;10.90;;;;;;;6.26;45.30;102014.45;103886;1279;96586;-62
2022/03/14 09:05:12;;;;;;;13.00;12.50;;;;;;;6.38;45.09;102006.70;103262;1281;138526;-61
2022/03/14 09:07:40;;;;;;;12.70;12.20;;;;;;;7.12;44.53;102009.05;103248;1280;98393;-63
2022/03/14 09:10:17;;;;;;;11.30;10.90;;;;;;;8.90;40.60;102000.92;103244;1280;138702;-62
2022/03/14 09:12:48;;;;;;;10.90;10.50;;;;;;;10.80;37.63;101998.30;103379;1281;96607;-62
2022/03/14 09:15:19;;;;;;;8.70;8.40;;;;;;;11.87;34.25;101990.44;103453;1280;96706;-63
2022/03/14 09:17:48;;;;;;;8.40;8.10;;;;;;;13.44;32.58;101990.42;103295;1281;138304;-62
2022/03/14 09:20:16;;;;;;;8.30;8.00;;;;;;;15.17;29.99;101988.75;103233;1281;99965;-63
2022/03/14 09:22:45;;;;;;;6.70;6.50;;;;;;;16.82;27.54;101983.19;103229;1281;138406;-64
2022/03/14 09:25:14;;;;;;;6.90;6.70;;;;;;;17.40;25.17;101978.88;103197;1281;97109;-63
2022/03/14 09:27:43;;;;;;;5.50;5.30;;;;;;;18.21;24.72;101974.05;103044;1281;139099;-63
2022/03/14 09:30:12;;;;;;;5.30;5.10;;;;;;;18.52;23.42;101974.27;103276;1280;110250;-62
2022/03/14 09:32:41;;;;;;;5.30;5.10;;;;;;;17.13;24.75;101981.97;103249;1281;98234;-63
2022/03/14 09:35:10;;;;;;;6.00;5.80;;;;;;;16.98;25.14;101981.48;103368;1279;138567;-64
2022/03/14 09:37:39;;;;;;;7.20;7.00;;;;;;;17.05;25.57;101974.86;103200;1280;97298;-63
2022/03/14 09:40:10;;;;;;;5.00;4.80;;;;;;;17.22;24.74;101971.52;103536;1281;139708;-63
2022/03/14 09:42:40;;;;;;;5.50;5.30;;;;;;;17.58;24.46;101967.40;104518;1280;111846;-62
2022/03/14 09:45:09;;;;;;;5.40;5.20;;;;;;;18.06;23.88;101966.98;103412;1281;98836;-63
2022/03/14 09:47:40;;;;;;;4.30;4.20;;;;;;;19.00;22.87;101962.15;103381;1281;139078;-63
2022/03/14 09:50:14;;;;;;;4.30;4.20;;;;;;;20.16;22.09;101958.74;103230;1281;97384;-63
2022/03/14 09:52:44;;;;;;;4.40;4.30;;;;;;;20.64;20.67;101963.23;103972;1279;139099;-63
2022/03/14 09:55:12;;;;;;;4.30;4.20;;;;;;;20.87;20.07;101962.48;103486;1280;110149;-63
2022/03/14 09:57:41;;;;;;;4.50;4.40;;;;;;;20.94;19.81;101965.73;103484;1279;139267;-63
2022/03/14 10:00:13;;;;;;;4.10;4.00;;;;;;;21.19;19.85;101962.98;103313;1281;108798;-61
2022/03/14 10:02:42;;;;;;;3.70;3.60;;;;;;;21.51;19.72;101959.33;103458;1281;96680;-62
2022/03/14 10:05:13;;;;;;;3.40;3.30;;;;;;;22.24;19.23;101953.27;103478;1279;138603;-63
2022/03/14 10:07:45;;;;;;;2.90;2.80;;;;;;;22.75;17.98;101955.58;103503;1280;110934;-64
2022/03/14 10:10:15;;;;;;;3.00;2.90;;;;;;;22.76;17.75;101960.41;103467;1280;138741;-63
2022/03/14 10:12:44;;;;;;;3.20;3.10;;;;;;;23.24;17.65;101958.41;103000;1282;109001;-63
2022/03/14 10:15:13;;;;;;;2.40;2.30;;;;;;;23.42;16.85;101960.52;103588;1281;97326;-63
2022/03/14 10:17:41;;;;;;;2.70;2.60;;;;;;;23.30;17.29;101959.35;103541;1279;138970;-63
2022/03/14 10:20:09;;;;;;;2.80;2.70;;;;;;;23.80;17.14;101956.36;103568;1279;109624;-63
2022/03/14 10:22:39;;;;;;;2.60;2.50;;;;;;;24.26;16.24;101958.13;103460;1280;138727;-64
2022/03/14 10:25:13;;;;;;;2.70;2.60;;;;;;;24.27;16.14;101957.33;103791;1279;109780;-63
2022/03/14 10:27:45;;;;;;;2.50;2.40;;;;;;;24.09;15.94;101955.83;103574;1280;138097;-64
2022/03/14 10:30:32;;;;;;;2.70;2.60;;;;;;;24.04;16.25;101952.52;103551;1279;98424;-66
2022/03/14 10:33:07;;;;;;;2.50;2.40;;;;;;;24.54;15.76;101950.09;103688;1279;111166;-63
2022/03/14 10:35:36;;;;;;;1.90;1.90;;;;;;;24.68;15.88;101950.36;103541;1280;139178;-63
2022/03/14 10:38:06;;;;;;;2.00;1.90;;;;;;;24.27;15.80;101947.88;103601;1279;109166;-64
2022/03/14 10:40:43;;;;;;;2.40;2.30;;;;;;;24.67;15.93;101946.73;103480;1279;139209;-63
2022/03/14 10:43:33;;;;;;;2.80;2.70;;;;;;;25.76;15.53;101941.53;103778;1279;97160;-64
2022/03/14 10:46:04;;;;;;;2.20;2.10;;;;;;;26.00;14.44;101940.50;103483;1280;139248;-64
2022/03/14 10:48:32;;;;;;;2.90;2.80;;;;;;;24.57;15.79;101942.27;103691;1281;98416;-64
2022/03/14 10:51:08;;;;;;;2.60;2.50;;;;;;;23.88;16.28;101941.29;103556;1281;108930;-61
2022/03/14 10:53:47;;;;;;;2.70;2.60;;;;;;;22.13;17.03;101948.70;103381;1280;139092;-64
2022/03/14 10:56:17;;;;;;;3.80;3.70;;;;;;;19.76;19.33;101949.73;103425;1280;96496;-59
2022/03/14 10:58:45;;;;;;;3.80;3.70;;;;;;;18.69;21.22;101945.80;103294;1281;138561;-63
2022/03/14 11:01:13;;;;;;;3.50;3.40;;;;;;;18.10;21.78;101950.69;103418;1279;97981;-63
2022/03/14 11:03:44;;;;;;;4.40;4.30;;;;;;;16.97;22.21;101951.73;103300;1280;139058;-63
2022/03/14 11:06:15;;;;;;;5.20;5.00;;;;;;;15.78;23.48;101949.70;103324;1279;97008;-63
2022/03/14 11:08:45;;;;;;;4.80;4.60;;;;;;;14.79;24.89;101949.79;103358;1281;96607;-63
2022/03/14 11:11:16;;;;;;;5.70;5.50;;;;;;;14.26;25.90;101948.04;102901;1280;138665;-63
2022/03/14 11:13:46;;;;;;;5.30;5.10;;;;;;;13.76;26.12;101947.57;103694;1280;99610;-67